sensor_id;sensor_type;location;lat;lon;timestamp;temperature;humidity
7530;DHT22;3806;52.270;10.544;2023-12-29T00:01:32;10.10;99.90
7530;DHT22;3806;52.270;10.544;2023-12-29T00:03:57;10.00;99.90
7530;DHT22;3806;52.270;10.544;2023-12-29T00:06:23;10.10;99.90
7530;DHT22;3806;52.270;10.544;2023-12-29T00:08:48;10.10;99.90
7530;DHT22;3806;52.270;10.544;2023-12-29T00:11:20;10.10;99.90
7530;DHT22;3806;52.270;10.544;2023-12-29T00:13:46;10.10;99.90
7530;DHT22;3806;52.270;10.544;2023-12-29T00:16:12;10.10;99.90
7530;DHT22;3806;52.270;10.544;2023-12-29T00:18:38;10.10;99.90
7530;DHT22;3806;52.270;10.544;2023-12-29T00:21:04;10.10;99.90
7530;DHT22;3806;52.270;10.544;2023-12-29T00:23:30;10.10;99.90
7530;DHT22;3806;52.270;10.544;2023-12-29T00:25:55;10.10;99.90
7530;DHT22;3806;52.270;10.544;2023-12-29T00:28:21;10.10;99.90
7530;DHT22;3806;52.270;10.544;2023-12-29T00:30:46;10.10;99.90
7530;DHT22;3806;52.270;10.544;2023-12-29T00:33:12;10.10;99.90
7530;DHT22;3806;52.270;10.544;2023-12-29T00:35:37;10.10;99.90
7530;DHT22;3806;52.270;10.544;2023-12-29T00:38:04;10.10;99.90
7530;DHT22;3806;52.270;10.544;2023-12-29T00:40:30;10.00;99.90
7530;DHT22;3806;52.270;10.544;2023-12-29T00:42:55;10.10;99.90
7530;DHT22;3806;52.270;10.544;2023-12-29T00:45:21;10.10;99.90
7530;DHT22;3806;52.270;10.544;2023-12-29T00:47:47;10.10;99.90
7530;DHT22;3806;52.270;10.544;2023-12-29T00:50:14;10.10;99.90
7530;DHT22;3806;52.270;10.544;2023-12-29T00:52:39;10.10;99.90
7530;DHT22;3806;52.270;10.544;2023-12-29T00:55:05;10.10;99.90
7530;DHT22;3806;52.270;10.544;2023-12-29T00:57:31;10.20;99.90
7530;DHT22;3806;52.270;10.544;2023-12-29T00:59:56;10.20;99.90
7530;DHT22;3806;52.270;10.544;2023-12-29T01:02:22;10.20;99.90
7530;DHT22;3806;52.270;10.544;2023-12-29T01:04:48;10.20;99.90
7530;DHT22;3806;52.270;10.544;2023-12-29T01:07:13;10.20;99.90
7530;DHT22;3806;52.270;10.544;2023-12-29T01:09:39;10.20;99.90
7530;DHT22;3806;52.270;10.544;2023-12-29T01:12:06;10.20;99.90
7530;DHT22;3806;52.270;10.544;2023-12-29T01:14:31;10.20;99.90
7530;DHT22;3806;52.270;10.544;2023-12-29T01:16:57;10.30;99.90
7530;DHT22;3806;52.270;10.544;2023-12-29T01:19:22;10.30;99.90
7530;DHT22;3806;52.270;10.544;2023-12-29T01:21:48;10.30;99.90
7530;DHT22;3806;52.270;10.544;2023-12-29T01:24:13;10.20;99.90
7530;DHT22;3806;52.270;10.544;2023-12-29T01:26:39;10.20;99.90
7530;DHT22;3806;52.270;10.544;2023-12-29T01:29:05;10.20;99.90
7530;DHT22;3806;52.270;10.544;2023-12-29T01:31:32;10.20;99.90
7530;DHT22;3806;52.270;10.544;2023-12-29T01:33:58;10.20;99.90
7530;DHT22;3806;52.270;10.544;2023-12-29T01:36:24;10.20;99.90
7530;DHT22;3806;52.270;10.544;2023-12-29T01:38:49;10.20;99.90
7530;DHT22;3806;52.270;10.544;2023-12-29T01:41:15;10.20;99.90
7530;DHT22;3806;52.270;10.544;2023-12-29T01:46:24;10.20;99.90
7530;DHT22;3806;52.270;10.544;2023-12-29T01:48:51;10.20;99.90
7530;DHT22;3806;52.270;10.544;2023-12-29T01:51:17;10.20;99.90
7530;DHT22;3806;52.270;10.544;2023-12-29T01:53:44;10.20;99.90
7530;DHT22;3806;52.270;10.544;2023-12-29T01:56:10;10.10;99.90
7530;DHT22;3806;52.270;10.544;2023-12-29T01:58:36;10.20;99.90
7530;DHT22;3806;52.270;10.544;2023-12-29T02:01:03;10.20;99.90
7530;DHT22;3806;52.270;10.544;2023-12-29T02:03:30;10.10;99.90
7530;DHT22;3806;52.270;10.544;2023-12-29T02:05:55;10.10;99.90
7530;DHT22;3806;52.270;10.544;2023-12-29T02:08:22;10.10;99.90
7530;DHT22;3806;52.270;10.544;2023-12-29T02:10:48;10.10;99.90
7530;DHT22;3806;52.270;10.544;2023-12-29T02:13:14;10.10;99.90
7530;DHT22;3806;52.270;10.544;2023-12-29T02:15:39;10.10;99.90
7530;DHT22;3806;52.270;10.544;2023-12-29T02:18:06;10.20;99.90
7530;DHT22;3806;52.270;10.544;2023-12-29T02:20:33;10.10;99.90
7530;DHT22;3806;52.270;10.544;2023-12-29T02:22:58;10.10;99.90
7530;DHT22;3806;52.270;10.544;2023-12-29T02:25:25;10.20;99.90
7530;DHT22;3806;52.270;10.544;2023-12-29T02:30:43;10.10;99.90
7530;DHT22;3806;52.270;10.544;2023-12-29T02:33:14;10.10;99.90
7530;DHT22;3806;52.270;10.544;2023-12-29T02:35:43;10.20;99.90
7530;DHT22;3806;52.270;10.544;2023-12-29T02:38:11;10.10;99.90
7530;DHT22;3806;52.270;10.544;2023-12-29T02:40:37;10.00;99.90
7530;DHT22;3806;52.270;10.544;2023-12-29T02:43:03;10.00;99.90
7530;DHT22;3806;52.270;10.544;2023-12-29T02:45:29;10.00;99.90
7530;DHT22;3806;52.270;10.544;2023-12-29T02:47:54;10.00;99.90
7530;DHT22;3806;52.270;10.544;2023-12-29T02:50:20;9.90;99.90
7530;DHT22;3806;52.270;10.544;2023-12-29T02:52:45;10.00;99.90
7530;DHT22;3806;52.270;10.544;2023-12-29T02:55:11;10.00;99.90
7530;DHT22;3806;52.270;10.544;2023-12-29T02:57:37;10.00;99.90
7530;DHT22;3806;52.270;10.544;2023-12-29T03:00:04;10.00;99.90
7530;DHT22;3806;52.270;10.544;2023-12-29T03:02:30;10.00;99.90
7530;DHT22;3806;52.270;10.544;2023-12-29T03:04:55;10.00;99.90
7530;DHT22;3806;52.270;10.544;2023-12-29T03:07:21;10.00;99.90
7530;DHT22;3806;52.270;10.544;2023-12-29T03:09:46;10.10;99.90
7530;DHT22;3806;52.270;10.544;2023-12-29T03:12:12;10.10;99.90
7530;DHT22;3806;52.270;10.544;2023-12-29T03:14:38;10.20;99.90
7530;DHT22;3806;52.270;10.544;2023-12-29T03:17:03;10.20;99.90
7530;DHT22;3806;52.270;10.544;2023-12-29T03:19:29;10.10;99.90
7530;DHT22;3806;52.270;10.544;2023-12-29T03:21:54;10.10;99.90
7530;DHT22;3806;52.270;10.544;2023-12-29T03:24:21;10.10;99.90
7530;DHT22;3806;52.270;10.544;2023-12-29T03:26:46;10.20;99.90
7530;DHT22;3806;52.270;10.544;2023-12-29T03:29:12;10.20;99.90
7530;DHT22;3806;52.270;10.544;2023-12-29T03:31:37;10.20;99.90
7530;DHT22;3806;52.270;10.544;2023-12-29T03:34:03;10.20;99.90
7530;DHT22;3806;52.270;10.544;2023-12-29T03:36:29;10.30;99.90
7530;DHT22;3806;52.270;10.544;2023-12-29T03:38:54;10.30;99.90
7530;DHT22;3806;52.270;10.544;2023-12-29T03:41:20;10.30;99.90
7530;DHT22;3806;52.270;10.544;2023-12-29T03:43:45;10.30;99.90
7530;DHT22;3806;52.270;10.544;2023-12-29T03:46:17;10.40;99.90
7530;DHT22;3806;52.270;10.544;2023-12-29T03:48:43;10.40;99.90
7530;DHT22;3806;52.270;10.544;2023-12-29T03:51:08;10.40;99.90
7530;DHT22;3806;52.270;10.544;2023-12-29T03:53:34;10.40;99.90
7530;DHT22;3806;52.270;10.544;2023-12-29T03:56:07;10.50;99.90
7530;DHT22;3806;52.270;10.544;2023-12-29T03:58:33;10.50;99.90
7530;DHT22;3806;52.270;10.544;2023-12-29T04:00:59;10.50;99.90
7530;DHT22;3806;52.270;10.544;2023-12-29T04:03:24;10.50;99.90
7530;DHT22;3806;52.270;10.544;2023-12-29T04:05:50;10.50;99.90
7530;DHT22;3806;52.270;10.544;2023-12-29T04:08:15;10.50;99.90
7530;DHT22;3806;52.270;10.544;2023-12-29T04:10:41;10.50;99.90
7530;DHT22;3806;52.270;10.544;2023-12-29T04:13:06;10.50;99.90
7530;DHT22;3806;52.270;10.544;2023-12-29T04:15:32;10.50;99.90
7530;DHT22;3806;52.270;10.544;2023-12-29T04:17:57;10.50;99.90
7530;DHT22;3806;52.270;10.544;2023-12-29T04:20:23;10.50;99.90
7530;DHT22;3806;52.270;10.544;2023-12-29T04:22:49;10.50;99.90
7530;DHT22;3806;52.270;10.544;2023-12-29T04:25:15;10.50;99.90
7530;DHT22;3806;52.270;10.544;2023-12-29T04:27:41;10.50;99.90
7530;DHT22;3806;52.270;10.544;2023-12-29T04:30:07;10.50;99.90
7530;DHT22;3806;52.270;10.544;2023-12-29T04:32:32;10.50;99.90
7530;DHT22;3806;52.270;10.544;2023-12-29T04:34:58;10.40;99.90
7530;DHT22;3806;52.270;10.544;2023-12-29T04:37:23;10.40;99.90
7530;DHT22;3806;52.270;10.544;2023-12-29T04:39:49;10.40;99.90
7530;DHT22;3806;52.270;10.544;2023-12-29T04:42:14;10.30;99.90
7530;DHT22;3806;52.270;10.544;2023-12-29T04:44:40;10.20;99.90
7530;DHT22;3806;52.270;10.544;2023-12-29T04:47:05;10.20;99.90
7530;DHT22;3806;52.270;10.544;2023-12-29T04:49:31;10.10;99.90
7530;DHT22;3806;52.270;10.544;2023-12-29T04:51:56;10.10;99.90
7530;DHT22;3806;52.270;10.544;2023-12-29T04:54:23;10.00;99.90
7530;DHT22;3806;52.270;10.544;2023-12-29T04:56:48;10.10;99.90
7530;DHT22;3806;52.270;10.544;2023-12-29T04:59:14;10.10;99.90
7530;DHT22;3806;52.270;10.544;2023-12-29T05:01:39;10.10;99.90
7530;DHT22;3806;52.270;10.544;2023-12-29T05:04:05;10.00;99.90
7530;DHT22;3806;52.270;10.544;2023-12-29T05:06:30;9.90;99.90
7530;DHT22;3806;52.270;10.544;2023-12-29T05:08:56;9.90;99.90
7530;DHT22;3806;52.270;10.544;2023-12-29T05:11:21;9.90;99.90
7530;DHT22;3806;52.270;10.544;2023-12-29T05:13:47;10.00;99.90
7530;DHT22;3806;52.270;10.544;2023-12-29T05:16:13;9.90;99.90
7530;DHT22;3806;52.270;10.544;2023-12-29T05:18:38;9.90;99.90
7530;DHT22;3806;52.270;10.544;2023-12-29T05:21:05;10.00;99.90
7530;DHT22;3806;52.270;10.544;2023-12-29T05:23:31;10.00;99.90
7530;DHT22;3806;52.270;10.544;2023-12-29T05:25:56;10.00;99.90
7530;DHT22;3806;52.270;10.544;2023-12-29T05:28:22;10.00;99.90
7530;DHT22;3806;52.270;10.544;2023-12-29T05:30:47;10.00;99.90
7530;DHT22;3806;52.270;10.544;2023-12-29T05:33:13;10.00;99.90
7530;DHT22;3806;52.270;10.544;2023-12-29T05:35:38;10.00;99.90
7530;DHT22;3806;52.270;10.544;2023-12-29T05:38:04;10.00;99.90
7530;DHT22;3806;52.270;10.544;2023-12-29T05:40:30;10.00;99.90
7530;DHT22;3806;52.270;10.544;2023-12-29T05:42:56;10.00;99.90
7530;DHT22;3806;52.270;10.544;2023-12-29T05:45:21;10.00;99.90
7530;DHT22;3806;52.270;10.544;2023-12-29T05:47:47;10.00;99.90
7530;DHT22;3806;52.270;10.544;2023-12-29T05:50:12;10.00;99.90
7530;DHT22;3806;52.270;10.544;2023-12-29T05:52:38;10.00;99.90
7530;DHT22;3806;52.270;10.544;2023-12-29T05:55:03;10.00;99.90
7530;DHT22;3806;52.270;10.544;2023-12-29T05:57:29;10.00;99.90
7530;DHT22;3806;52.270;10.544;2023-12-29T05:59:54;9.90;99.90
7530;DHT22;3806;52.270;10.544;2023-12-29T06:02:20;9.90;99.90
7530;DHT22;3806;52.270;10.544;2023-12-29T06:04:45;9.90;99.90
7530;DHT22;3806;52.270;10.544;2023-12-29T06:07:11;9.80;99.90
7530;DHT22;3806;52.270;10.544;2023-12-29T06:09:36;9.80;99.90
7530;DHT22;3806;52.270;10.544;2023-12-29T06:12:02;9.80;99.90
7530;DHT22;3806;52.270;10.544;2023-12-29T06:14:28;9.70;99.90
7530;DHT22;3806;52.270;10.544;2023-12-29T06:16:53;9.70;99.90
7530;DHT22;3806;52.270;10.544;2023-12-29T06:19:18;9.70;99.90
7530;DHT22;3806;52.270;10.544;2023-12-29T06:21:44;9.70;99.90
7530;DHT22;3806;52.270;10.544;2023-12-29T06:24:10;9.70;99.90
7530;DHT22;3806;52.270;10.544;2023-12-29T06:26:36;9.60;99.90
7530;DHT22;3806;52.270;10.544;2023-12-29T06:29:07;9.60;99.90
7530;DHT22;3806;52.270;10.544;2023-12-29T06:31:32;9.60;99.90
7530;DHT22;3806;52.270;10.544;2023-12-29T06:33:58;9.70;99.90
7530;DHT22;3806;52.270;10.544;2023-12-29T06:36:25;9.60;99.90
7530;DHT22;3806;52.270;10.544;2023-12-29T06:38:51;9.60;99.90
7530;DHT22;3806;52.270;10.544;2023-12-29T06:41:17;9.60;99.90
7530;DHT22;3806;52.270;10.544;2023-12-29T06:43:43;9.60;99.90
7530;DHT22;3806;52.270;10.544;2023-12-29T06:46:09;9.50;99.90
7530;DHT22;3806;52.270;10.544;2023-12-29T06:48:34;9.50;99.90
7530;DHT22;3806;52.270;10.544;2023-12-29T06:51:01;9.60;99.90
7530;DHT22;3806;52.270;10.544;2023-12-29T06:53:26;9.60;99.90
7530;DHT22;3806;52.270;10.544;2023-12-29T06:55:52;9.60;99.90
7530;DHT22;3806;52.270;10.544;2023-12-29T06:58:17;9.70;99.90
7530;DHT22;3806;52.270;10.544;2023-12-29T07:00:43;9.70;99.90
7530;DHT22;3806;52.270;10.544;2023-12-29T07:03:09;9.60;99.90
7530;DHT22;3806;52.270;10.544;2023-12-29T07:05:34;9.60;99.90
7530;DHT22;3806;52.270;10.544;2023-12-29T07:08:00;9.60;99.90
7530;DHT22;3806;52.270;10.544;2023-12-29T07:10:25;9.60;99.90
7530;DHT22;3806;52.270;10.544;2023-12-29T07:12:50;9.60;99.90
7530;DHT22;3806;52.270;10.544;2023-12-29T07:15:16;9.60;99.90
7530;DHT22;3806;52.270;10.544;2023-12-29T07:17:42;9.60;99.90
7530;DHT22;3806;52.270;10.544;2023-12-29T07:20:07;9.70;99.90
7530;DHT22;3806;52.270;10.544;2023-12-29T07:22:33;9.70;99.90
7530;DHT22;3806;52.270;10.544;2023-12-29T07:24:59;9.70;99.90
7530;DHT22;3806;52.270;10.544;2023-12-29T07:27:24;9.70;99.90
7530;DHT22;3806;52.270;10.544;2023-12-29T07:29:50;9.80;99.90
7530;DHT22;3806;52.270;10.544;2023-12-29T07:32:15;9.80;99.90
7530;DHT22;3806;52.270;10.544;2023-12-29T07:34:41;9.80;99.90
7530;DHT22;3806;52.270;10.544;2023-12-29T07:37:06;9.80;99.90
7530;DHT22;3806;52.270;10.544;2023-12-29T07:39:32;9.80;99.90
7530;DHT22;3806;52.270;10.544;2023-12-29T07:41:57;9.70;99.90
7530;DHT22;3806;52.270;10.544;2023-12-29T07:44:23;9.80;99.90
7530;DHT22;3806;52.270;10.544;2023-12-29T07:46:49;9.80;99.90
7530;DHT22;3806;52.270;10.544;2023-12-29T07:49:14;9.90;99.90
7530;DHT22;3806;52.270;10.544;2023-12-29T07:51:41;9.90;99.90
7530;DHT22;3806;52.270;10.544;2023-12-29T07:54:07;10.00;99.90
7530;DHT22;3806;52.270;10.544;2023-12-29T07:56:33;10.00;99.90
7530;DHT22;3806;52.270;10.544;2023-12-29T07:58:59;10.10;99.90
7530;DHT22;3806;52.270;10.544;2023-12-29T08:01:24;10.20;99.90
7530;DHT22;3806;52.270;10.544;2023-12-29T08:03:51;10.30;99.90
7530;DHT22;3806;52.270;10.544;2023-12-29T08:06:16;10.40;99.90
7530;DHT22;3806;52.270;10.544;2023-12-29T08:08:42;10.50;99.90
7530;DHT22;3806;52.270;10.544;2023-12-29T08:11:13;10.50;99.90
7530;DHT22;3806;52.270;10.544;2023-12-29T08:13:40;10.50;99.90
7530;DHT22;3806;52.270;10.544;2023-12-29T08:16:05;10.50;99.90
7530;DHT22;3806;52.270;10.544;2023-12-29T08:18:32;10.50;99.90
7530;DHT22;3806;52.270;10.544;2023-12-29T08:20:58;10.60;99.90
7530;DHT22;3806;52.270;10.544;2023-12-29T08:23:25;10.60;99.90
7530;DHT22;3806;52.270;10.544;2023-12-29T08:25:52;10.60;99.90
7530;DHT22;3806;52.270;10.544;2023-12-29T08:28:17;10.70;99.90
7530;DHT22;3806;52.270;10.544;2023-12-29T08:30:43;10.80;99.90
7530;DHT22;3806;52.270;10.544;2023-12-29T08:33:11;10.90;99.90
7530;DHT22;3806;52.270;10.544;2023-12-29T08:35:39;11.10;99.90
7530;DHT22;3806;52.270;10.544;2023-12-29T08:38:05;11.20;99.90
7530;DHT22;3806;52.270;10.544;2023-12-29T08:40:30;11.30;99.90
7530;DHT22;3806;52.270;10.544;2023-12-29T08:42:56;11.30;99.90
7530;DHT22;3806;52.270;10.544;2023-12-29T08:45:21;11.30;99.90
7530;DHT22;3806;52.270;10.544;2023-12-29T08:47:47;11.40;99.90
7530;DHT22;3806;52.270;10.544;2023-12-29T08:50:12;11.40;99.90
7530;DHT22;3806;52.270;10.544;2023-12-29T08:52:37;11.40;99.90
7530;DHT22;3806;52.270;10.544;2023-12-29T08:55:03;11.40;99.90
7530;DHT22;3806;52.270;10.544;2023-12-29T08:57:30;11.50;99.90
7530;DHT22;3806;52.270;10.544;2023-12-29T08:59:56;11.50;99.90
7530;DHT22;3806;52.270;10.544;2023-12-29T09:02:21;11.40;99.90
7530;DHT22;3806;52.270;10.544;2023-12-29T09:04:47;11.40;99.90
7530;DHT22;3806;52.270;10.544;2023-12-29T09:07:12;11.50;99.90
7530;DHT22;3806;52.270;10.544;2023-12-29T09:09:38;11.50;99.90
7530;DHT22;3806;52.270;10.544;2023-12-29T09:12:04;11.50;99.90
7530;DHT22;3806;52.270;10.544;2023-12-29T09:14:30;11.50;99.90
7530;DHT22;3806;52.270;10.544;2023-12-29T09:16:58;11.60;99.90
7530;DHT22;3806;52.270;10.544;2023-12-29T09:19:23;11.60;99.90
7530;DHT22;3806;52.270;10.544;2023-12-29T09:21:48;11.70;99.90
7530;DHT22;3806;52.270;10.544;2023-12-29T09:24:14;11.70;99.90
7530;DHT22;3806;52.270;10.544;2023-12-29T09:26:39;11.70;99.90
7530;DHT22;3806;52.270;10.544;2023-12-29T09:29:05;11.80;99.90
7530;DHT22;3806;52.270;10.544;2023-12-29T09:31:30;11.90;99.90
7530;DHT22;3806;52.270;10.544;2023-12-29T09:33:56;12.10;99.90
7530;DHT22;3806;52.270;10.544;2023-12-29T09:36:22;12.20;99.90
7530;DHT22;3806;52.270;10.544;2023-12-29T09:38:48;12.30;99.80
7530;DHT22;3806;52.270;10.544;2023-12-29T09:41:14;12.40;99.60
7530;DHT22;3806;52.270;10.544;2023-12-29T09:43:40;12.40;99.40
7530;DHT22;3806;52.270;10.544;2023-12-29T09:46:08;12.40;99.20
7530;DHT22;3806;52.270;10.544;2023-12-29T09:48:34;12.50;99.00
7530;DHT22;3806;52.270;10.544;2023-12-29T09:51:02;12.50;98.90
7530;DHT22;3806;52.270;10.544;2023-12-29T09:53:27;12.40;98.90
7530;DHT22;3806;52.270;10.544;2023-12-29T09:55:54;12.30;99.10
7530;DHT22;3806;52.270;10.544;2023-12-29T09:58:21;12.20;99.40
7530;DHT22;3806;52.270;10.544;2023-12-29T10:00:49;12.10;99.70
7530;DHT22;3806;52.270;10.544;2023-12-29T10:03:15;12.00;99.90
7530;DHT22;3806;52.270;10.544;2023-12-29T10:05:40;11.80;99.90
7530;DHT22;3806;52.270;10.544;2023-12-29T10:08:07;11.80;99.90
7530;DHT22;3806;52.270;10.544;2023-12-29T10:10:35;11.70;99.90
7530;DHT22;3806;52.270;10.544;2023-12-29T10:13:04;11.70;99.90
7530;DHT22;3806;52.270;10.544;2023-12-29T10:16:08;11.50;99.90
7530;DHT22;3806;52.270;10.544;2023-12-29T10:18:45;11.40;99.90
7530;DHT22;3806;52.270;10.544;2023-12-29T10:21:26;11.30;99.90
7530;DHT22;3806;52.270;10.544;2023-12-29T10:24:13;11.20;99.90
7530;DHT22;3806;52.270;10.544;2023-12-29T10:26:41;11.10;99.90
7530;DHT22;3806;52.270;10.544;2023-12-29T10:29:09;11.00;99.90
7530;DHT22;3806;52.270;10.544;2023-12-29T10:31:36;10.90;99.90
7530;DHT22;3806;52.270;10.544;2023-12-29T10:34:21;10.80;99.90
7530;DHT22;3806;52.270;10.544;2023-12-29T10:36:53;10.80;99.90
7530;DHT22;3806;52.270;10.544;2023-12-29T10:39:19;10.70;99.90
7530;DHT22;3806;52.270;10.544;2023-12-29T10:41:44;10.70;99.90
7530;DHT22;3806;52.270;10.544;2023-12-29T10:44:10;10.60;99.90
7530;DHT22;3806;52.270;10.544;2023-12-29T10:46:35;10.60;99.90
7530;DHT22;3806;52.270;10.544;2023-12-29T10:49:08;10.60;99.90
7530;DHT22;3806;52.270;10.544;2023-12-29T10:51:37;10.50;99.90
7530;DHT22;3806;52.270;10.544;2023-12-29T10:54:04;10.60;99.90
7530;DHT22;3806;52.270;10.544;2023-12-29T10:56:33;10.60;99.90
7530;DHT22;3806;52.270;10.544;2023-12-29T10:59:00;10.60;99.90
7530;DHT22;3806;52.270;10.544;2023-12-29T11:01:26;10.70;99.90
7530;DHT22;3806;52.270;10.544;2023-12-29T11:04:02;10.70;99.90
7530;DHT22;3806;52.270;10.544;2023-12-29T11:06:29;10.70;99.90
7530;DHT22;3806;52.270;10.544;2023-12-29T11:08:55;10.70;99.90
7530;DHT22;3806;52.270;10.544;2023-12-29T11:11:21;10.70;99.90
7530;DHT22;3806;52.270;10.544;2023-12-29T11:13:48;10.70;99.90
7530;DHT22;3806;52.270;10.544;2023-12-29T11:16:14;10.70;99.90
7530;DHT22;3806;52.270;10.544;2023-12-29T11:18:43;10.70;99.90
7530;DHT22;3806;52.270;10.544;2023-12-29T11:21:10;10.70;99.90
7530;DHT22;3806;52.270;10.544;2023-12-29T11:23:35;10.70;99.90
7530;DHT22;3806;52.270;10.544;2023-12-29T11:26:03;10.70;99.90
7530;DHT22;3806;52.270;10.544;2023-12-29T11:28:29;10.80;99.90
7530;DHT22;3806;52.270;10.544;2023-12-29T11:30:54;10.80;99.90
7530;DHT22;3806;52.270;10.544;2023-12-29T11:33:28;10.80;99.90
7530;DHT22;3806;52.270;10.544;2023-12-29T11:36:15;10.70;99.90
7530;DHT22;3806;52.270;10.544;2023-12-29T11:39:06;10.70;99.90
7530;DHT22;3806;52.270;10.544;2023-12-29T11:42:01;10.70;99.90
7530;DHT22;3806;52.270;10.544;2023-12-29T11:44:28;10.80;99.90
7530;DHT22;3806;52.270;10.544;2023-12-29T11:46:56;10.90;99.90
7530;DHT22;3806;52.270;10.544;2023-12-29T11:49:22;11.00;99.90
7530;DHT22;3806;52.270;10.544;2023-12-29T11:51:49;11.10;99.90
7530;DHT22;3806;52.270;10.544;2023-12-29T11:54:26;11.10;99.90
7530;DHT22;3806;52.270;10.544;2023-12-29T11:56:55;11.10;99.90
7530;DHT22;3806;52.270;10.544;2023-12-29T11:59:25;11.10;99.90
7530;DHT22;3806;52.270;10.544;2023-12-29T12:01:55;11.20;99.90
7530;DHT22;3806;52.270;10.544;2023-12-29T12:04:40;11.20;99.90
7530;DHT22;3806;52.270;10.544;2023-12-29T12:07:07;11.10;99.90
7530;DHT22;3806;52.270;10.544;2023-12-29T12:09:34;11.20;99.90
7530;DHT22;3806;52.270;10.544;2023-12-29T12:12:01;11.20;99.90
7530;DHT22;3806;52.270;10.544;2023-12-29T12:17:10;11.20;99.90
7530;DHT22;3806;52.270;10.544;2023-12-29T12:19:36;11.30;99.90
7530;DHT22;3806;52.270;10.544;2023-12-29T12:22:02;11.30;99.90
7530;DHT22;3806;52.270;10.544;2023-12-29T12:24:28;11.30;99.90
7530;DHT22;3806;52.270;10.544;2023-12-29T12:26:56;11.40;99.90
7530;DHT22;3806;52.270;10.544;2023-12-29T12:29:22;11.40;99.90
7530;DHT22;3806;52.270;10.544;2023-12-29T12:31:52;11.50;99.90
7530;DHT22;3806;52.270;10.544;2023-12-29T12:34:18;11.50;99.90
7530;DHT22;3806;52.270;10.544;2023-12-29T12:36:51;11.50;99.90
7530;DHT22;3806;52.270;10.544;2023-12-29T12:39:16;11.50;99.90
7530;DHT22;3806;52.270;10.544;2023-12-29T12:41:42;11.50;99.90
7530;DHT22;3806;52.270;10.544;2023-12-29T12:44:12;11.50;99.90
7530;DHT22;3806;52.270;10.544;2023-12-29T12:46:58;11.40;99.90
7530;DHT22;3806;52.270;10.544;2023-12-29T12:49:25;11.40;99.90
7530;DHT22;3806;52.270;10.544;2023-12-29T12:51:50;11.40;99.90
7530;DHT22;3806;52.270;10.544;2023-12-29T12:54:18;11.40;99.90
7530;DHT22;3806;52.270;10.544;2023-12-29T12:56:45;11.40;99.90
7530;DHT22;3806;52.270;10.544;2023-12-29T12:59:11;11.40;99.90
7530;DHT22;3806;52.270;10.544;2023-12-29T13:01:37;11.40;99.90
7530;DHT22;3806;52.270;10.544;2023-12-29T13:04:04;11.40;99.90
7530;DHT22;3806;52.270;10.544;2023-12-29T13:06:32;11.40;99.90
7530;DHT22;3806;52.270;10.544;2023-12-29T13:08:58;11.40;99.90
7530;DHT22;3806;52.270;10.544;2023-12-29T13:11:24;11.40;99.90
7530;DHT22;3806;52.270;10.544;2023-12-29T13:13:53;11.40;99.90
7530;DHT22;3806;52.270;10.544;2023-12-29T13:16:36;11.30;99.90
7530;DHT22;3806;52.270;10.544;2023-12-29T13:19:19;11.40;99.90
7530;DHT22;3806;52.270;10.544;2023-12-29T13:21:55;11.40;99.90
7530;DHT22;3806;52.270;10.544;2023-12-29T13:24:21;11.40;99.90
7530;DHT22;3806;52.270;10.544;2023-12-29T13:26:47;11.40;99.90
7530;DHT22;3806;52.270;10.544;2023-12-29T13:29:18;11.40;99.90
7530;DHT22;3806;52.270;10.544;2023-12-29T13:31:47;11.30;99.90
7530;DHT22;3806;52.270;10.544;2023-12-29T13:34:18;11.30;99.90
7530;DHT22;3806;52.270;10.544;2023-12-29T13:39:42;11.20;99.90
7530;DHT22;3806;52.270;10.544;2023-12-29T13:42:10;11.20;99.90
7530;DHT22;3806;52.270;10.544;2023-12-29T13:44:39;11.20;99.90
7530;DHT22;3806;52.270;10.544;2023-12-29T13:47:05;11.20;99.90
7530;DHT22;3806;52.270;10.544;2023-12-29T13:49:31;11.20;99.90
7530;DHT22;3806;52.270;10.544;2023-12-29T13:52:05;11.20;99.90
7530;DHT22;3806;52.270;10.544;2023-12-29T13:54:40;11.30;99.90
7530;DHT22;3806;52.270;10.544;2023-12-29T13:57:05;11.30;99.90
7530;DHT22;3806;52.270;10.544;2023-12-29T13:59:31;11.30;99.90
7530;DHT22;3806;52.270;10.544;2023-12-29T14:02:15;11.30;99.90
7530;DHT22;3806;52.270;10.544;2023-12-29T14:04:44;11.40;99.90
7530;DHT22;3806;52.270;10.544;2023-12-29T14:07:10;11.40;99.90
7530;DHT22;3806;52.270;10.544;2023-12-29T14:09:39;11.40;99.90
7530;DHT22;3806;52.270;10.544;2023-12-29T14:12:05;11.40;99.90
7530;DHT22;3806;52.270;10.544;2023-12-29T14:14:31;11.40;99.90
7530;DHT22;3806;52.270;10.544;2023-12-29T14:16:57;11.40;99.90
7530;DHT22;3806;52.270;10.544;2023-12-29T14:19:22;11.40;99.90
7530;DHT22;3806;52.270;10.544;2023-12-29T14:21:53;11.40;99.90
7530;DHT22;3806;52.270;10.544;2023-12-29T14:24:19;11.50;99.90
7530;DHT22;3806;52.270;10.544;2023-12-29T14:29:17;11.40;99.90
7530;DHT22;3806;52.270;10.544;2023-12-29T14:31:44;11.40;99.90
7530;DHT22;3806;52.270;10.544;2023-12-29T14:34:10;11.40;99.90
7530;DHT22;3806;52.270;10.544;2023-12-29T14:36:38;11.40;99.90
7530;DHT22;3806;52.270;10.544;2023-12-29T14:39:04;11.50;99.90
7530;DHT22;3806;52.270;10.544;2023-12-29T14:41:30;11.50;99.90
7530;DHT22;3806;52.270;10.544;2023-12-29T14:43:56;11.50;99.90
7530;DHT22;3806;52.270;10.544;2023-12-29T14:46:22;11.50;99.90
7530;DHT22;3806;52.270;10.544;2023-12-29T14:48:47;11.50;99.90
7530;DHT22;3806;52.270;10.544;2023-12-29T14:51:13;11.50;99.90
7530;DHT22;3806;52.270;10.544;2023-12-29T14:53:39;11.50;99.90
7530;DHT22;3806;52.270;10.544;2023-12-29T14:56:05;11.40;99.90
7530;DHT22;3806;52.270;10.544;2023-12-29T14:58:31;11.40;99.90
7530;DHT22;3806;52.270;10.544;2023-12-29T15:01:02;11.40;99.90
7530;DHT22;3806;52.270;10.544;2023-12-29T15:03:28;11.30;99.90
7530;DHT22;3806;52.270;10.544;2023-12-29T15:05:53;11.30;99.90
7530;DHT22;3806;52.270;10.544;2023-12-29T15:08:19;11.30;99.90
7530;DHT22;3806;52.270;10.544;2023-12-29T15:10:44;11.20;99.90
7530;DHT22;3806;52.270;10.544;2023-12-29T15:13:10;11.20;99.90
7530;DHT22;3806;52.270;10.544;2023-12-29T15:15:36;11.20;99.90
7530;DHT22;3806;52.270;10.544;2023-12-29T15:18:02;11.10;99.90
7530;DHT22;3806;52.270;10.544;2023-12-29T15:20:28;11.10;99.90
7530;DHT22;3806;52.270;10.544;2023-12-29T15:22:53;11.10;99.90
7530;DHT22;3806;52.270;10.544;2023-12-29T15:25:21;11.10;99.90
7530;DHT22;3806;52.270;10.544;2023-12-29T15:27:48;11.10;99.90
7530;DHT22;3806;52.270;10.544;2023-12-29T15:30:14;11.00;99.90
7530;DHT22;3806;52.270;10.544;2023-12-29T15:32:39;11.00;99.90
7530;DHT22;3806;52.270;10.544;2023-12-29T15:35:05;11.00;99.90
7530;DHT22;3806;52.270;10.544;2023-12-29T15:37:32;11.00;99.90
7530;DHT22;3806;52.270;10.544;2023-12-29T15:39:57;11.00;99.90
7530;DHT22;3806;52.270;10.544;2023-12-29T15:42:25;11.00;99.90
7530;DHT22;3806;52.270;10.544;2023-12-29T15:44:50;11.00;99.90
7530;DHT22;3806;52.270;10.544;2023-12-29T15:47:16;11.00;99.90
7530;DHT22;3806;52.270;10.544;2023-12-29T15:49:41;11.00;99.90
7530;DHT22;3806;52.270;10.544;2023-12-29T15:52:07;11.10;99.90
7530;DHT22;3806;52.270;10.544;2023-12-29T15:54:32;11.10;99.90
7530;DHT22;3806;52.270;10.544;2023-12-29T15:56:58;11.10;99.90
7530;DHT22;3806;52.270;10.544;2023-12-29T15:59:24;11.10;99.90